Time;durP1;ratioP1;P1;durP2;ratioP2;P2;SDS_P1;SDS_P2;PMS_P1;PMS_P2;Temp;Humidity;BMP_temperature;BMP_pressure;BME280_temperature;BME280_humidity;BME280_pressure;Samples;Min_cycle;Max_cycle;Signal;HPM_P1;HPM_P2
2023/10/15 00:00:13;;;;;;;;;6.33;3.00;;;;;13.98;58.96;101797.66;5036221;28;45526;-40
2023/10/15 00:02:43;;;;;;;;;3.00;1.00;;;;;13.95;58.50;101790.78;5036003;28;45341;-41
2023/10/15 00:05:10;;;;;;;;;3.00;2.00;;;;;13.91;58.67;101799.25;5036445;28;45277;-43
2023/10/15 00:07:35;;;;;;;;;3.00;1.00;;;;;13.92;58.31;101806.28;5034805;28;46202;-37
2023/10/15 00:10:00;;;;;;;;;1.00;1.00;;;;;13.89;58.35;101803.88;5035822;28;45441;-40
2023/10/15 00:12:26;;;;;;;;;1.00;1.00;;;;;13.82;58.91;101803.63;5036091;28;45370;-40
2023/10/15 00:14:51;;;;;;;;;1.00;1.00;;;;;13.84;59.02;101806.16;5036339;28;45310;-40
2023/10/15 00:17:16;;;;;;;;;1.00;1.00;;;;;13.81;58.72;101801.06;5035767;28;45580;-40
2023/10/15 00:19:42;;;;;;;;;1.33;0.67;;;;;13.78;59.32;101796.88;5035759;28;45433;-40
2023/10/15 00:22:07;;;;;;;;;1.33;1.00;;;;;13.73;59.52;101786.56;5036260;28;45418;-40
2023/10/15 00:24:33;;;;;;;;;1.00;1.00;;;;;13.73;59.50;101804.44;5036157;28;45439;-41
2023/10/15 00:26:58;;;;;;;;;1.00;1.00;;;;;13.71;59.56;101801.94;5036050;28;46294;-40
2023/10/15 00:29:25;;;;;;;;;1.33;1.00;;;;;13.70;59.45;101799.41;5035785;28;45384;-40
2023/10/15 00:31:50;;;;;;;;;5.00;2.00;;;;;13.60;59.76;101791.38;5035974;28;45304;-39
2023/10/15 00:34:17;;;;;;;;;2.33;2.33;;;;;13.61;59.76;101795.75;5035895;28;45510;-39
2023/10/15 00:36:42;;;;;;;;;1.00;1.00;;;;;13.36;59.94;101774.94;5034992;28;45400;-40
2023/10/15 00:39:19;;;;;;;;;2.33;2.33;;;;;13.59;59.97;101810.22;5035986;28;45317;-41
2023/10/15 00:41:47;;;;;;;;;3.00;1.67;;;;;13.57;60.01;101801.50;5035800;28;45721;-40
2023/10/15 00:44:14;;;;;;;;;1.00;1.00;;;;;13.55;59.92;101801.66;5035839;28;45511;-40
2023/10/15 00:46:41;;;;;;;;;1.00;1.00;;;;;13.51;59.82;101808.25;5035530;28;46210;-40
2023/10/15 00:49:14;;;;;;;;;1.00;1.00;;;;;13.46;60.16;101800.66;5035397;28;45261;-40
2023/10/15 00:51:44;;;;;;;;;1.33;1.00;;;;;13.45;60.53;101796.31;5035725;28;45351;-40
2023/10/15 00:54:15;;;;;;;;;4.00;2.00;;;;;13.43;60.55;101798.25;5035643;28;45338;-40
2023/10/15 00:56:44;;;;;;;;;3.33;1.00;;;;;13.41;61.00;101810.09;5035076;28;46652;-39
2023/10/15 01:04:35;;;;;;;;;1.33;1.33;;;;;13.34;60.97;101809.78;4934965;28;45459;-40
2023/10/15 01:07:14;;;;;;;;;1.67;1.67;;;;;13.34;61.16;101816.97;4934633;28;45403;-41
2023/10/15 01:09:40;;;;;;;;;1.00;1.00;;;;;13.33;61.48;101815.28;4934774;28;45420;-41
2023/10/15 01:14:49;;;;;;;;;3.33;0.67;;;;;13.25;61.41;101805.28;4935245;28;45356;-42
2023/10/15 01:17:14;;;;;;;;;1.00;1.00;;;;;13.26;61.79;101814.13;4934276;28;45523;-40
2023/10/15 01:19:40;;;;;;;;;3.00;1.00;;;;;13.26;61.98;101811.47;4936423;28;45435;-41
2023/10/15 01:22:08;;;;;;;;;1.67;1.00;;;;;13.23;61.84;101810.78;4938428;28;45438;-41
2023/10/15 01:24:36;;;;;;;;;1.33;1.00;;;;;13.25;62.02;101815.97;4938107;28;45596;-40
2023/10/15 01:27:13;;;;;;;;;2.00;2.00;;;;;13.21;62.24;101811.84;4944873;28;46374;-40
2023/10/15 01:29:41;;;;;;;;;7.00;2.33;;;;;13.21;62.03;101803.81;4957175;28;45349;-41
2023/10/15 01:32:10;;;;;;;;;3.00;3.00;;;;;13.21;62.02;101807.34;4957186;28;45363;-41
2023/10/15 01:34:41;;;;;;;;;1.00;1.00;;;;;13.21;62.37;101803.81;4957318;28;45385;-41
2023/10/15 01:37:15;;;;;;;;;7.00;2.00;;;;;13.14;62.13;101798.19;4957040;28;47312;-41
2023/10/15 01:39:45;;;;;;;;;0.00;0.00;;;;;13.16;62.38;101796.22;4957109;28;45502;-41
2023/10/15 01:42:31;;;;;;;;;1.00;1.00;;;;;13.13;61.93;101798.31;5020005;28;45287;-41
2023/10/15 01:47:36;;;;;;;;;3.00;1.00;;;;;13.11;62.46;101795.81;5038030;28;45360;-41
2023/10/15 01:50:08;;;;;;;;;1.00;1.00;;;;;13.12;62.36;101796.66;5038161;28;45333;-41
2023/10/15 01:52:40;;;;;;;;;1.33;1.33;;;;;13.16;62.62;101798.06;5038147;28;45245;-41
2023/10/15 01:55:06;;;;;;;;;3.00;2.00;;;;;13.17;62.27;101791.72;5038410;28;45375;-41
2023/10/15 01:57:32;;;;;;;;;5.00;1.00;;;;;13.17;62.03;101784.56;5037814;28;47581;-40
2023/10/15 02:03:02;;;;;;;;;1.00;1.00;;;;;13.12;62.63;101792.16;4956977;28;45481;-41
2023/10/15 02:05:40;;;;;;;;;1.67;1.67;;;;;13.08;62.54;101792.56;4940892;28;45328;-40
2023/10/15 02:08:07;;;;;;;;;1.67;1.00;;;;;12.96;62.35;101773.13;4957163;28;45543;-41
2023/10/15 02:10:32;;;;;;;;;2.00;0.67;;;;;13.06;62.09;101800.72;4956845;28;45561;-40
2023/10/15 02:13:04;;;;;;;;;2.67;1.33;;;;;12.98;62.36;101792.53;4956813;28;45470;-40
2023/10/15 02:15:39;;;;;;;;;1.67;1.67;;;;;12.99;62.67;101808.44;4956963;28;45367;-40
2023/10/15 02:18:13;;;;;;;;;2.00;2.00;;;;;13.05;62.66;101811.53;4956624;28;46523;-40
2023/10/15 02:23:11;;;;;;;;;1.00;1.00;;;;;13.08;61.75;101820.13;4956721;28;45376;-41
2023/10/15 02:25:45;;;;;;;;;2.67;1.00;;;;;13.09;61.60;101828.97;4956858;28;45420;-39
2023/10/15 02:28:11;;;;;;;;;2.00;2.00;;;;;13.09;62.02;101823.63;4956403;28;47321;-40
2023/10/15 02:30:40;;;;;;;;;3.67;3.67;;;;;13.09;61.87;101816.44;4955031;28;45474;-42
2023/10/15 02:33:06;;;;;;;;;0.00;0.00;;;;;13.06;61.69;101813.22;4973687;28;45332;-41
2023/10/15 02:35:39;;;;;;;;;2.33;1.00;;;;;13.11;61.52;101822.53;5037775;28;45779;-41
2023/10/15 02:38:08;;;;;;;;;3.33;1.67;;;;;13.11;62.17;101819.84;5037457;28;46684;-40
2023/10/15 02:40:36;;;;;;;;;1.00;0.00;;;;;13.07;62.21;101829.13;5037403;28;45352;-41
2023/10/15 02:43:06;;;;;;;;;1.00;1.00;;;;;13.02;62.14;101823.34;5037521;28;45375;-40
2023/10/15 02:45:35;;;;;;;;;1.33;1.33;;;;;12.96;62.31;101818.53;5037631;28;45290;-41
2023/10/15 02:48:10;;;;;;;;;3.00;1.33;;;;;12.94;62.26;101815.16;5037091;28;46404;-42
2023/10/15 02:50:36;;;;;;;;;1.00;1.00;;;;;12.94;62.31;101820.50;5037206;28;45333;-40
2023/10/15 02:53:04;;;;;;;;;3.67;0.00;;;;;12.92;61.83;101825.13;5037353;28;45341;-40
2023/10/15 02:55:36;;;;;;;;;3.33;1.00;;;;;12.89;61.98;101828.06;5037574;28;45266;-40
2023/10/15 02:58:02;;;;;;;;;2.00;2.00;;;;;12.83;61.99;101825.94;5036896;28;46576;-41
2023/10/15 03:00:28;;;;;;;;;1.33;1.33;;;;;12.79;62.45;101828.03;5036997;28;45341;-40
2023/10/15 03:02:58;;;;;;;;;3.00;1.00;;;;;12.74;62.58;101828.44;5037051;28;45345;-39
2023/10/15 03:05:30;;;;;;;;;3.67;1.33;;;;;12.70;62.32;101834.19;5037270;28;45452;-40
2023/10/15 03:07:59;;;;;;;;;2.00;2.00;;;;;12.67;62.30;101837.94;5037015;28;46483;-41
2023/10/15 03:10:56;;;;;;;;;1.00;1.00;;;;;12.59;62.54;101827.09;5036788;28;45478;-39
2023/10/15 03:13:14;;;;;;;;;3.00;2.00;;;;;12.62;62.74;101842.00;5036357;28;45333;-41
2023/10/15 03:15:48;;;;;;;;;2.00;2.00;;;;;12.60;62.77;101842.16;5037309;28;45233;-41
2023/10/15 03:18:21;;;;;;;;;0.67;0.67;;;;;12.59;62.98;101851.13;5036863;28;47298;-42
2023/10/15 03:20:49;;;;;;;;;2.33;2.33;;;;;12.54;63.17;101841.81;5036641;28;45328;-42
2023/10/15 03:23:17;;;;;;;;;1.33;1.33;;;;;12.54;63.41;101840.00;5036867;28;45367;-41
2023/10/15 03:25:43;;;;;;;;;1.00;1.00;;;;;12.54;63.35;101834.66;5037063;28;45236;-41
2023/10/15 03:28:11;;;;;;;;;2.00;2.00;;;;;12.56;63.00;101843.41;5036715;28;47009;-42
2023/10/15 03:30:44;;;;;;;;;1.00;1.00;;;;;12.56;63.00;101837.22;5036992;28;45388;-41
2023/10/15 03:33:13;;;;;;;;;3.00;2.00;;;;;12.57;63.16;101836.22;5036777;28;45845;-42
2023/10/15 03:35:45;;;;;;;;;4.33;3.00;;;;;12.57;63.36;101841.56;5036980;28;45321;-41
2023/10/15 03:38:14;;;;;;;;;4.00;2.33;;;;;12.55;62.92;101849.69;5036356;28;47202;-41
2023/10/15 03:40:46;;;;;;;;;2.33;2.00;;;;;12.54;63.36;101848.00;5036667;28;45766;-40
2023/10/15 03:43:15;;;;;;;;;4.33;3.00;;;;;12.53;62.95;101845.47;5036165;28;45465;-40
2023/10/15 03:45:53;;;;;;;;;3.00;2.00;;;;;12.52;63.27;101846.47;5036654;28;45392;-40
2023/10/15 03:48:29;;;;;;;;;2.67;2.00;;;;;12.51;63.46;101850.09;5036130;28;47087;-40
2023/10/15 03:50:58;;;;;;;;;1.67;1.67;;;;;12.47;63.22;101841.50;5036175;28;45454;-41
2023/10/15 03:53:28;;;;;;;;;3.00;2.00;;;;;12.51;62.95;101847.41;5036457;28;45270;-40
2023/10/15 03:55:56;;;;;;;;;1.33;1.33;;;;;12.42;63.36;101828.56;5036356;28;45463;-41
2023/10/15 03:58:23;;;;;;;;;2.00;2.00;;;;;12.47;63.02;101845.03;5035408;28;45749;-40
2023/10/15 04:00:56;;;;;;;;;2.00;2.00;;;;;12.42;63.54;101839.22;5036286;28;45442;-41
2023/10/15 04:03:28;;;;;;;;;2.67;0.00;;;;;12.42;63.85;101844.56;5034660;28;45348;-41
2023/10/15 04:06:01;;;;;;;;;2.00;0.67;;;;;12.39;63.66;101847.53;5035781;28;45528;-39
2023/10/15 04:08:31;;;;;;;;;1.00;1.00;;;;;12.38;63.30;101848.47;5036098;28;46938;-42
2023/10/15 04:11:00;;;;;;;;;3.00;2.00;;;;;12.40;63.36;101856.38;5035872;28;45603;-40
2023/10/15 04:13:26;;;;;;;;;1.67;1.67;;;;;12.38;63.63;101861.81;5036060;28;45519;-42
2023/10/15 04:15:54;;;;;;;;;6.00;2.00;;;;;12.36;63.40;101860.28;5036222;28;45246;-41
2023/10/15 04:18:22;;;;;;;;;3.00;1.00;;;;;12.33;63.51;101866.69;5035904;28;46917;-40
2023/10/15 04:20:49;;;;;;;;;2.67;2.00;;;;;12.33;63.79;101871.19;5035826;28;45398;-43
2023/10/15 04:23:27;;;;;;;;;4.00;2.00;;;;;12.31;63.65;101873.16;5036166;28;45225;-41
2023/10/15 04:25:53;;;;;;;;;3.33;2.00;;;;;12.29;63.60;101875.94;5036417;28;45348;-42
2023/10/15 04:28:19;;;;;;;;;1.33;1.33;;;;;12.25;63.77;101874.50;5036118;28;45933;-41
2023/10/15 04:30:46;;;;;;;;;2.33;2.00;;;;;12.26;64.26;101878.03;5036303;28;45372;-39
2023/10/15 04:33:14;;;;;;;;;1.00;1.00;;;;;12.23;64.26;101879.16;5035798;28;45356;-40
2023/10/15 04:35:43;;;;;;;;;3.33;1.67;;;;;12.19;64.21;101873.22;5036121;28;45258;-42
2023/10/15 04:38:08;;;;;;;;;2.67;1.67;;;;;12.20;64.18;101874.91;5018451;28;45420;-41
2023/10/15 04:40:59;;;;;;;;;4.33;2.67;;;;;12.21;63.83;101870.41;5034726;28;45407;-41
2023/10/15 04:43:25;;;;;;;;;6.00;2.00;;;;;12.20;64.46;101885.56;5035870;28;45875;-41
2023/10/15 04:45:51;;;;;;;;;2.67;2.00;;;;;12.19;64.03;101889.22;5035787;28;45476;-40
2023/10/15 04:48:25;;;;;;;;;1.67;1.67;;;;;12.18;64.39;101900.88;5035491;28;46317;-41
2023/10/15 04:50:51;;;;;;;;;2.00;2.00;;;;;12.06;64.24;101891.22;5035487;28;45333;-41
2023/10/15 04:55:47;;;;;;;;;1.67;1.67;;;;;12.22;64.34;101912.97;5039358;28;45388;-41
2023/10/15 04:58:14;;;;;;;;;1.00;1.00;;;;;12.28;64.49;101911.59;5038816;28;45443;-40
2023/10/15 05:00:43;;;;;;;;;3.00;3.00;;;;;12.32;64.20;101909.53;5038936;28;45307;-40
2023/10/15 05:03:09;;;;;;;;;3.67;2.00;;;;;12.37;63.84;101899.31;5038221;28;45335;-41
2023/10/15 05:05:34;;;;;;;;;2.00;2.00;;;;;12.42;64.06;101907.75;5038127;28;45471;-42
2023/10/15 05:08:00;;;;;;;;;2.67;2.00;;;;;12.42;64.26;101902.44;5038034;28;47102;-42
2023/10/15 05:10:29;;;;;;;;;2.67;2.00;;;;;12.49;63.94;101904.44;5037870;28;45458;-43
2023/10/15 05:12:59;;;;;;;;;3.33;2.00;;;;;12.52;63.41;101903.34;5037959;28;45292;-41
2023/10/15 05:15:25;;;;;;;;;1.33;1.33;;;;;12.56;63.53;101903.94;5037905;28;45422;-40
2023/10/15 05:17:50;;;;;;;;;6.00;2.00;;;;;12.60;62.77;101906.22;5037376;28;45435;-38
2023/10/15 05:20:16;;;;;;;;;2.67;2.00;;;;;12.63;62.91;101905.09;5037557;28;45589;-39
2023/10/15 05:22:41;;;;;;;;;4.00;2.00;;;;;12.63;62.93;101900.59;5037670;28;45433;-40
2023/10/15 05:25:15;;;;;;;;;4.00;2.00;;;;;12.64;62.72;101894.31;5037913;28;45396;-40
2023/10/15 05:27:42;;;;;;;;;1.67;1.67;;;;;12.64;62.94;101896.09;5037535;28;47354;-40
2023/10/15 05:30:10;;;;;;;;;6.67;2.00;;;;;12.63;63.35;101899.75;5019693;28;45392;-39
2023/10/15 05:32:35;;;;;;;;;5.67;3.00;;;;;12.60;62.98;101898.22;5036837;28;45517;-44
2023/10/15 05:35:01;;;;;;;;;7.67;3.00;;;;;12.52;63.15;101900.69;5037382;28;45304;-42
2023/10/15 05:37:27;;;;;;;;;3.00;2.33;;;;;12.46;63.56;101894.03;5037230;28;46277;-40
2023/10/15 05:39:52;;;;;;;;;5.00;3.33;;;;;12.42;63.75;101903.28;5037122;28;45422;-39
2023/10/15 05:42:18;;;;;;;;;3.00;3.00;;;;;12.38;64.07;101893.84;5037127;28;45254;-39
2023/10/15 05:44:44;;;;;;;;;2.33;2.33;;;;;12.24;64.02;101881.66;5037486;28;45384;-40
2023/10/15 05:47:09;;;;;;;;;2.00;2.00;;;;;12.24;64.02;101895.00;5037012;28;46253;-42
2023/10/15 05:49:36;;;;;;;;;3.33;1.67;;;;;12.24;64.43;101900.34;5018791;28;45380;-40
2023/10/15 05:52:02;;;;;;;;;2.00;2.00;;;;;12.19;63.91;101897.22;5036316;28;45468;-40
2023/10/15 05:54:28;;;;;;;;;2.33;2.33;;;;;12.17;64.64;101901.81;5037132;28;45528;-39
2023/10/15 05:56:53;;;;;;;;;3.33;2.67;;;;;12.17;64.84;101908.97;5036589;28;46221;-38
2023/10/15 05:59:18;;;;;;;;;4.33;1.33;;;;;12.15;64.95;101897.63;5036910;28;45258;-40
2023/10/15 06:01:44;;;;;;;;;3.00;1.67;;;;;12.16;64.69;101905.47;4997314;28;1129551;-39
2023/10/15 06:04:09;;;;;;;;;3.00;3.00;;;;;12.13;65.10;101918.22;5038163;28;45337;-40
2023/10/15 06:06:36;;;;;;;;;4.00;2.00;;;;;12.05;64.85;101905.56;5037573;28;45349;-42
2023/10/15 06:09:02;;;;;;;;;4.00;2.00;;;;;12.11;65.36;101915.69;5037959;28;45292;-40
2023/10/15 06:11:27;;;;;;;;;6.00;2.33;;;;;12.13;64.91;101926.22;5038006;28;45719;-40
2023/10/15 06:13:53;;;;;;;;;4.00;2.00;;;;;12.11;64.53;101929.03;5038008;28;45361;-40
2023/10/15 06:16:18;;;;;;;;;4.00;3.00;;;;;12.13;64.26;101927.06;5037464;28;46140;-39
2023/10/15 06:18:43;;;;;;;;;2.00;2.00;;;;;12.11;64.70;101928.19;5036865;28;45465;-41
2023/10/15 06:21:09;;;;;;;;;3.67;2.00;;;;;12.15;64.23;101938.47;5037603;28;45344;-40
2023/10/15 06:23:34;;;;;;;;;2.33;1.67;;;;;12.14;63.85;101939.44;5038027;28;45388;-40
2023/10/15 06:26:00;;;;;;;;;2.00;2.00;;;;;12.13;64.15;101940.41;5037523;28;45457;-39
2023/10/15 06:28:25;;;;;;;;;3.67;2.00;;;;;12.11;63.88;101941.53;5037712;28;45420;-39
2023/10/15 06:30:51;;;;;;;;;19.00;17.67;;;;;12.14;64.17;101950.13;5037754;28;45391;-39
2023/10/15 06:33:18;;;;;;;;;23.00;21.00;;;;;12.15;64.52;101950.97;5037761;28;45420;-40
2023/10/15 06:35:43;;;;;;;;;5.33;4.33;;;;;12.16;63.85;101961.50;5037142;28;46295;-41
2023/10/15 06:38:09;;;;;;;;;3.00;3.00;;;;;12.17;64.29;101955.19;5037388;28;45387;-40
2023/10/15 06:40:37;;;;;;;;;2.33;2.00;;;;;12.16;63.95;101957.97;5037710;28;45448;-41
2023/10/15 06:43:03;;;;;;;;;2.00;2.00;;;;;12.15;64.35;101953.63;5037783;28;45687;-42
2023/10/15 06:45:29;;;;;;;;;2.00;2.00;;;;;12.19;64.22;101958.59;5036924;28;45475;-42
2023/10/15 06:47:55;;;;;;;;;3.00;2.00;;;;;12.19;64.34;101957.75;5037232;28;45415;-41
2023/10/15 06:50:21;;;;;;;;;3.00;2.00;;;;;12.21;64.33;101961.94;5037127;28;45751;-42
2023/10/15 06:52:47;;;;;;;;;2.00;2.00;;;;;12.19;63.96;101955.91;5037619;28;45496;-41
2023/10/15 06:55:19;;;;;;;;;2.00;2.00;;;;;12.22;63.92;101958.34;5036969;28;45983;-41
2023/10/15 06:57:45;;;;;;;;;3.33;2.00;;;;;12.14;64.24;101958.13;5037098;28;45439;-41
2023/10/15 07:00:12;;;;;;;;;6.00;3.00;;;;;12.24;64.27;101969.72;5037644;28;45407;-47
2023/10/15 07:02:38;;;;;;;;;4.00;3.00;;;;;12.27;64.22;101978.44;5037120;28;45420;-41
2023/10/15 07:05:05;;;;;;;;;6.00;3.00;;;;;12.29;63.89;101982.66;5036762;28;45427;-41
2023/10/15 07:07:34;;;;;;;;;8.00;4.00;;;;;12.32;63.69;101982.41;5036839;28;45805;-40
2023/10/15 07:10:04;;;;;;;;;7.00;4.00;;;;;12.34;64.08;101984.94;5037204;28;45312;-41
2023/10/15 07:12:29;;;;;;;;;2.33;2.33;;;;;12.35;63.79;101979.50;5037118;28;45413;-43
2023/10/15 07:14:55;;;;;;;;;3.00;3.00;;;;;12.32;63.56;101976.25;5036636;28;46147;-39
2023/10/15 07:17:20;;;;;;;;;2.67;0.33;;;;;12.42;63.27;101988.66;5036166;28;47441;-43
2023/10/15 07:19:46;;;;;;;;;6.33;3.67;;;;;12.43;62.95;101995.72;5036844;28;45391;-39
2023/10/15 07:22:11;;;;;;;;;4.67;3.00;;;;;12.44;62.98;101992.06;5037076;28;45547;-41
2023/10/15 07:24:36;;;;;;;;;4.00;2.33;;;;;12.46;63.15;101987.44;5036632;28;46014;-44
2023/10/15 07:27:04;;;;;;;;;3.00;2.00;;;;;12.51;62.89;101995.06;5036650;28;45774;-43
2023/10/15 07:29:29;;;;;;;;;4.33;3.33;;;;;12.49;63.51;101995.19;5036746;28;45384;-42
2023/10/15 07:31:55;;;;;;;;;4.00;2.00;;;;;12.55;63.64;102012.50;5036741;28;45341;-38
2023/10/15 07:34:22;;;;;;;;;2.00;2.00;;;;;12.56;63.55;102005.38;5036439;28;46527;-39
2023/10/15 07:36:50;;;;;;;;;3.33;3.33;;;;;12.56;63.42;102000.88;5036250;28;45415;-42
2023/10/15 07:39:17;;;;;;;;;3.33;2.00;;;;;12.60;63.33;102007.66;5036694;28;45313;-40
2023/10/15 07:41:43;;;;;;;;;3.00;3.00;;;;;12.57;63.06;101999.91;5035414;28;45731;-45
2023/10/15 07:44:08;;;;;;;;;3.00;3.00;;;;;12.66;63.31;102012.47;5018602;28;45403;-42
2023/10/15 07:46:34;;;;;;;;;4.67;4.00;;;;;12.65;62.71;102008.09;5018553;28;45603;-43
2023/10/15 07:49:00;;;;;;;;;3.00;3.00;;;;;12.71;62.38;102010.25;5036515;28;45354;-43
2023/10/15 07:51:27;;;;;;;;;2.67;2.67;;;;;12.75;62.31;102024.19;5036726;28;45440;-41
2023/10/15 07:53:53;;;;;;;;;4.00;2.67;;;;;12.81;62.01;102023.69;5035846;28;47345;-40
2023/10/15 07:56:18;;;;;;;;;2.33;2.33;;;;;12.84;61.70;102025.22;5036125;28;45981;-41
2023/10/15 07:58:43;;;;;;;;;5.67;3.33;;;;;12.84;61.93;102019.88;5036494;28;45462;-39
2023/10/15 08:01:09;;;;;;;;;5.33;4.00;;;;;12.92;61.26;102022.75;5036478;28;45366;-40
2023/10/15 08:03:34;;;;;;;;;3.00;2.00;;;;;12.92;60.81;102017.41;5036030;28;46129;-41
2023/10/15 08:06:02;;;;;;;;;3.33;2.67;;;;;13.00;60.99;102022.94;5035937;28;45440;-42
2023/10/15 08:08:29;;;;;;;;;3.00;3.00;;;;;12.98;60.93;102017.75;5034905;28;45377;-41
2023/10/15 08:10:55;;;;;;;;;3.33;3.00;;;;;13.12;60.82;102029.06;5036130;28;45429;-39
2023/10/15 08:13:22;;;;;;;;;9.00;2.33;;;;;13.17;60.33;102022.34;5035787;28;45589;-41
2023/10/15 08:15:47;;;;;;;;;2.00;2.00;;;;;13.23;59.65;102024.53;5035824;28;45509;-39
2023/10/15 08:18:12;;;;;;;;;2.33;1.00;;;;;13.33;59.15;102029.91;5035959;28;45403;-39
2023/10/15 08:20:38;;;;;;;;;2.67;1.33;;;;;13.41;58.81;102034.59;5036352;28;45337;-40
2023/10/15 08:23:07;;;;;;;;;2.67;2.67;;;;;13.43;58.69;102016.59;5035716;28;46394;-41
2023/10/15 08:25:33;;;;;;;;;1.00;1.00;;;;;13.61;58.56;102036.38;5035860;28;45400;-39
2023/10/15 08:27:58;;;;;;;;;2.00;2.00;;;;;13.77;57.97;102037.69;5035639;28;45403;-42
2023/10/15 08:30:23;;;;;;;;;2.67;2.00;;;;;13.84;57.62;102033.50;5039174;28;45265;-40
2023/10/15 08:32:49;;;;;;;;;2.00;2.00;;;;;14.09;56.72;102051.72;5039133;28;46207;-41
2023/10/15 08:35:16;;;;;;;;;3.67;2.00;;;;;14.34;56.40;102042.31;5039273;28;45865;-40
2023/10/15 08:37:43;;;;;;;;;2.00;0.00;;;;;15.85;53.71;102047.84;5039152;28;45435;-44
2023/10/15 08:40:15;;;;;;;;;2.00;2.00;;;;;17.79;49.38;102051.47;5039672;28;45656;-41
2023/10/15 08:43:10;;;;;;;;;1.67;1.00;;;;;19.77;45.27;102042.22;5039056;28;46635;-40
2023/10/15 08:45:36;;;;;;;;;2.33;1.67;;;;;20.82;42.05;102041.75;5039069;28;45277;-41
2023/10/15 08:48:05;;;;;;;;;5.33;2.33;;;;;20.85;41.63;102025.97;5039353;28;45484;-42
2023/10/15 08:50:36;;;;;;;;;1.00;1.00;;;;;21.83;40.51;102043.03;5039253;28;45420;-40
2023/10/15 08:53:04;;;;;;;;;2.67;1.67;;;;;20.51;40.83;102037.25;5038534;28;45588;-42
2023/10/15 08:55:33;;;;;;;;;2.50;1.50;;;;;19.58;42.40;102051.53;5038256;28;45256;-41
2023/10/15 08:57:59;;;;;;;;;1.00;1.00;;;;;18.93;43.28;102060.63;5038989;28;45827;-40
2023/10/15 09:00:25;;;;;;;;;0.75;0.75;;;;;19.52;42.25;102056.81;5021059;28;45479;-41
2023/10/15 09:03:00;;;;;;;;;1.25;1.25;;;;;20.05;42.51;102047.97;5037818;28;46184;-42
2023/10/15 09:05:26;;;;;;;;;0.50;0.50;;;;;20.48;41.14;102050.25;5038727;28;45394;-40
2023/10/15 09:07:54;;;;;;;;;2.50;2.50;;;;;20.79;41.23;102056.47;5038701;28;45384;-41
2023/10/15 09:10:20;;;;;;;;;0.00;0.00;;;;;20.48;40.89;102061.06;5038866;28;45406;-40
2023/10/15 09:12:47;;;;;;;;;4.00;1.00;;;;;20.34;41.15;102047.28;5038584;28;46079;-42
2023/10/15 09:15:16;;;;;;;;;0.00;0.00;;;;;21.08;39.63;102055.69;5038663;28;45477;-41
2023/10/15 09:17:49;;;;;;;;;1.00;1.00;;;;;21.37;39.60;102054.06;5038893;28;45416;-40
2023/10/15 09:20:17;;;;;;;;;1.75;1.75;;;;;21.94;38.43;102058.78;5038775;28;45402;-45
2023/10/15 09:22:44;;;;;;;;;1.00;1.00;;;;;22.89;37.07;102068.56;5038434;28;47353;-39
2023/10/15 09:25:14;;;;;;;;;3.00;1.00;;;;;23.51;35.69;102065.06;5038522;28;45471;-42
2023/10/15 09:27:45;;;;;;;;;1.25;1.25;;;;;22.70;36.19;102063.78;5038713;28;45411;-40
2023/10/15 09:30:18;;;;;;;;;0.25;0.25;;;;;21.52;37.88;102062.19;5038807;28;45306;-44
2023/10/15 09:32:45;;;;;;;;;2.00;1.00;;;;;20.61;38.90;102062.19;5038347;28;46199;-41
2023/10/15 09:35:13;;;;;;;;;4.50;0.25;;;;;20.12;39.51;102070.56;5038370;28;45428;-44
2023/10/15 09:37:39;;;;;;;;;0.00;0.00;;;;;20.41;39.55;102077.16;5038457;28;45278;-42
2023/10/15 09:40:09;;;;;;;;;0.00;0.00;;;;;20.48;38.03;102074.56;5038131;28;45363;-40
2023/10/15 09:42:37;;;;;;;;;2.00;0.75;;;;;19.75;39.12;102076.66;5038191;28;47466;-40
2023/10/15 09:45:05;;;;;;;;;0.00;0.00;;;;;21.39;38.85;102074.50;5038368;28;45349;-40
2023/10/15 09:47:32;;;;;;;;;7.50;1.25;;;;;21.44;37.19;102079.34;5038227;28;45395;-41
2023/10/15 09:50:00;;;;;;;;;0.75;0.75;;;;;20.36;38.03;102075.00;5038791;28;45428;-40
2023/10/15 09:52:28;;;;;;;;;1.00;1.00;;;;;19.59;38.69;102069.44;5037880;28;45634;-40
2023/10/15 09:54:55;;;;;;;;;1.00;1.00;;;;;19.03;39.94;102073.91;5038147;28;45385;-42
2023/10/15 09:57:23;;;;;;;;;2.00;0.75;;;;;19.37;40.87;102092.59;5038179;28;45378;-41
2023/10/15 09:59:53;;;;;;;;;1.00;1.00;;;;;22.11;36.57;102076.50;5038304;28;45331;-44
2023/10/15 10:02:41;;;;;;;;;1.50;0.00;;;;;24.27;33.20;102065.00;5037631;28;46473;-42
2023/10/15 10:05:41;;;;;;;;;2.40;1.00;;;;;25.64;30.90;102069.81;5037846;28;45404;-42
2023/10/15 10:08:19;;;;;;;;;1.00;1.00;;;;;25.18;31.05;102067.19;5037852;28;45637;-40
2023/10/15 10:11:14;;;;;;;;;0.50;0.50;;;;;24.00;31.86;102074.94;5038120;28;45324;-41
2023/10/15 10:14:09;;;;;;;;;1.00;1.00;;;;;23.40;33.05;102081.91;5019890;28;47152;-40
2023/10/15 10:16:35;;;;;;;;;2.80;1.00;;;;;25.08;31.17;102078.50;5035165;28;45364;-41
2023/10/15 10:19:02;;;;;;;;;0.80;0.80;;;;;26.49;29.19;102075.09;5037873;28;45456;-41
2023/10/15 10:21:29;;;;;;;;;1.00;1.00;;;;;27.26;27.60;102078.50;5038108;28;45326;-45
2023/10/15 10:23:58;;;;;;;;;1.00;1.00;;;;;27.74;26.83;102074.22;5037737;28;45813;-44
2023/10/15 10:26:27;;;;;;;;;1.80;0.40;;;;;27.63;27.15;102089.44;5037655;28;45463;-41
2023/10/15 10:28:54;;;;;;;;;2.20;2.20;;;;;26.63;27.95;102075.84;5037769;28;45477;-42
2023/10/15 10:31:21;;;;;;;;;4.20;2.40;;;;;25.11;28.93;102083.53;5037945;28;45230;-44
2023/10/15 10:33:51;;;;;;;;;1.00;1.00;;;;;23.93;30.43;102094.97;5037384;28;47202;-42
2023/10/15 10:36:18;;;;;;;;;0.60;0.60;;;;;22.93;31.57;102090.75;5037413;28;45450;-41
2023/10/15 10:38:58;;;;;;;;;2.00;2.00;;;;;22.13;32.95;102098.88;5037478;28;45348;-43
2023/10/15 10:41:34;;;;;;;;;1.80;1.80;;;;;22.71;32.34;102100.72;5037624;28;45294;-41
2023/10/15 10:44:00;;;;;;;;;0.00;0.00;;;;;22.46;31.50;102097.53;5036362;28;45451;-39
2023/10/15 10:46:25;;;;;;;;;0.00;0.00;;;;;22.07;31.63;102093.31;5037448;28;45438;-42
2023/10/15 10:49:05;;;;;;;;;0.00;0.00;;;;;22.44;32.70;102089.63;5037290;28;45631;-40
2023/10/15 10:51:33;;;;;;;;;0.25;0.25;;;;;22.93;31.48;102088.88;5036837;28;45277;-41
2023/10/15 10:53:58;;;;;;;;;1.00;1.00;;;;;23.07;30.77;102101.50;5037098;28;45426;-42
2023/10/15 10:56:43;;;;;;;;;0.00;0.00;;;;;23.27;31.23;102101.66;5037184;28;45268;-42
2023/10/15 10:59:11;;;;;;;;;1.00;1.00;;;;;23.55;30.61;102096.19;5037211;28;45368;-41
2023/10/15 11:01:37;;;;;;;;;0.20;0.00;;;;;23.99;30.23;102089.56;5036770;28;45619;-43
2023/10/15 11:04:06;;;;;;;;;0.40;0.40;;;;;24.79;29.19;102078.91;5037102;28;46263;-48
2023/10/15 11:06:45;;;;;;;;;1.20;0.80;;;;;26.30;28.83;102081.50;5037310;28;45415;-42
2023/10/15 11:09:22;;;;;;;;;0.60;0.20;;;;;28.30;26.27;102079.34;5037103;28;45463;-40
2023/10/15 11:11:53;;;;;;;;;0.80;0.80;;;;;30.25;24.13;102077.31;5037580;28;45312;-42
2023/10/15 11:14:23;;;;;;;;;0.00;0.00;;;;;28.60;24.40;102078.50;5036793;28;47170;-41
2023/10/15 11:16:50;;;;;;;;;1.80;1.80;;;;;26.73;25.23;102084.38;5036845;28;45345;-43
2023/10/15 11:19:20;;;;;;;;;0.60;0.60;;;;;25.35;27.20;102079.31;5036930;28;45393;-40
2023/10/15 11:21:46;;;;;;;;;0.00;0.00;;;;;24.31;28.15;102093.44;5037151;28;45301;-41
2023/10/15 11:24:14;;;;;;;;;0.50;0.00;;;;;24.50;29.04;102077.41;5037039;28;45409;-43
2023/10/15 11:26:41;;;;;;;;;2.20;0.80;;;;;26.58;26.16;102086.59;5036920;28;45333;-46
2023/10/15 11:29:08;;;;;;;;;0.00;0.00;;;;;27.83;24.94;102081.03;5036777;28;45353;-44
2023/10/15 11:31:35;;;;;;;;;1.80;0.00;;;;;27.98;26.86;102073.28;5037024;28;45427;-41
2023/10/15 11:34:00;;;;;;;;;2.00;1.00;;;;;28.78;24.25;102077.56;5036552;28;45643;-44
2023/10/15 11:36:28;;;;;;;;;0.50;0.50;;;;;27.38;24.67;102077.72;5036405;28;45335;-44
2023/10/15 11:38:53;;;;;;;;;0.20;0.20;;;;;26.71;24.80;102066.53;5036578;28;45499;-42
2023/10/15 11:41:19;;;;;;;;;0.00;0.00;;;;;27.09;24.28;102071.88;5036992;28;46007;-43
2023/10/15 11:43:48;;;;;;;;;0.00;0.00;;;;;27.21;25.35;102066.56;5036254;28;51689;-44
2023/10/15 11:46:16;;;;;;;;;0.40;0.40;;;;;27.95;23.96;102071.00;5036449;28;45333;-41
2023/10/15 11:48:41;;;;;;;;;0.40;0.40;;;;;28.29;24.10;102064.00;5036010;28;45489;-42